Time;durP1;ratioP1;P1;durP2;ratioP2;P2;SDS_P1;SDS_P2;PMS_P1;PMS_P2;Temp;Humidity;BMP_temperature;BMP_pressure;BME280_temperature;BME280_humidity;BME280_pressure;Samples;Min_cycle;Max_cycle;Signal;HPM_P1;HPM_P2
2023/09/10 00:00:41;;;;;;;24.88;21.67;;;;;;;-148.88;100.00;-17125.47;4956507;28;20078;-86
2023/09/10 00:03:07;;;;;;;22.88;19.98;;;;;;;-148.88;100.00;-17125.47;4955639;29;20514;-86
2023/09/10 00:05:32;;;;;;;27.52;22.10;;;;;;;-148.88;100.00;-17125.47;4956081;29;20034;-87
2023/09/10 00:08:00;;;;;;;23.08;20.25;;;;;;;-148.88;100.00;-17125.47;4956792;29;20023;-87
2023/09/10 00:10:26;;;;;;;24.83;22.17;;;;;;;-148.88;100.00;-17125.47;4955383;29;20028;-86
2023/09/10 00:12:52;;;;;;;24.13;21.45;;;;;;;-148.88;100.00;-17125.47;4954944;28;20046;-87
2023/09/10 00:15:17;;;;;;;22.88;20.27;;;;;;;-148.88;100.00;-17125.47;4954820;29;20023;-88
2023/09/10 00:17:42;;;;;;;26.58;22.45;;;;;;;-148.88;100.00;-17125.47;4954543;29;20024;-86
2023/09/10 00:20:10;;;;;;;23.50;20.95;;;;;;;-148.88;100.00;-17125.47;4955053;29;20507;-86
2023/09/10 00:22:36;;;;;;;26.15;22.88;;;;;;;-148.88;100.00;-17125.47;4955906;28;20027;-84
2023/09/10 00:25:02;;;;;;;25.25;22.15;;;;;;;-148.88;100.00;-17125.47;4954483;29;20504;-86
2023/09/10 00:27:27;;;;;;;26.27;23.08;;;;;;;-148.88;100.00;-17125.47;4954933;29;20023;-86
2023/09/10 00:29:53;;;;;;;27.40;24.42;;;;;;;-148.88;100.00;-17125.47;4955884;28;20101;-86
2023/09/10 00:32:18;;;;;;;27.58;22.80;;;;;;;-148.88;100.00;-17125.47;4956127;28;20027;-86
2023/09/10 00:34:44;;;;;;;25.92;23.27;;;;;;;-148.88;100.00;-17125.47;4955582;29;20031;-86
2023/09/10 00:37:09;;;;;;;26.63;23.25;;;;;;;-148.88;100.00;-17125.47;4955341;29;20061;-86
2023/09/10 00:39:34;;;;;;;26.00;23.17;;;;;;;-148.88;100.00;-17125.47;4954507;29;20438;-86
2023/09/10 00:41:59;;;;;;;26.42;22.77;;;;;;;-148.88;100.00;-17125.47;4954594;28;20441;-86
2023/09/10 00:44:25;;;;;;;25.38;22.67;;;;;;;-148.88;100.00;-17125.47;4954734;29;20162;-86
2023/09/10 00:46:52;;;;;;;24.10;21.58;;;;;;;-148.88;100.00;-17125.47;4954492;29;20097;-86
2023/09/10 00:49:21;;;;;;;24.73;22.23;;;;;;;-148.88;100.00;-17125.47;4955707;28;20401;-86
2023/09/10 00:51:47;;;;;;;23.95;21.48;;;;;;;-148.88;100.00;-17125.47;4953814;28;20023;-86
2023/09/10 00:54:15;;;;;;;26.75;23.50;;;;;;;-148.88;100.00;-17125.47;4955474;28;20031;-86
2023/09/10 00:56:40;;;;;;;28.17;25.17;;;;;;;-148.88;100.00;-17125.47;4954064;29;20094;-86
2023/09/10 00:59:08;;;;;;;28.55;25.27;;;;;;;-148.88;100.00;-17125.47;4954687;29;20437;-86
2023/09/10 01:01:34;;;;;;;31.02;27.30;;;;;;;-148.88;100.00;-17125.47;4956142;28;20031;-86
2023/09/10 01:04:00;;;;;;;29.95;26.77;;;;;;;-148.88;100.00;-17125.47;4956456;28;20023;-86
2023/09/10 01:06:26;;;;;;;31.80;28.48;;;;;;;-148.88;100.00;-17125.47;4954411;29;20023;-86
2023/09/10 01:08:52;;;;;;;33.72;30.02;;;;;;;-148.88;100.00;-17125.47;4955916;28;20032;-86
2023/09/10 01:11:34;;;;;;;36.55;29.80;;;;;;;-148.88;100.00;-17125.47;4953969;28;20214;-86
2023/09/10 01:14:19;;;;;;;36.65;32.30;;;;;;;-148.88;100.00;-17125.47;4955642;28;20054;-86
2023/09/10 01:16:57;;;;;;;36.20;32.33;;;;;;;-148.88;100.00;-17125.47;4954034;29;20037;-87
2023/09/10 01:20:00;;;;;;;39.97;32.78;;;;;;;-148.88;100.00;-17125.47;4954216;29;20094;-86
2023/09/10 01:22:39;;;;;;;38.03;33.92;;;;;;;-148.88;100.00;-17125.47;4862775;29;20033;-86
2023/09/10 01:25:05;;;;;;;38.80;34.78;;;;;;;-148.88;100.00;-17125.47;4946622;28;20075;-86
2023/09/10 01:27:31;;;;;;;39.35;35.10;;;;;;;-148.88;100.00;-17125.47;4953855;29;20090;-86
2023/09/10 01:29:56;;;;;;;42.15;36.83;;;;;;;-148.88;100.00;-17125.47;4953679;29;20023;-86
2023/09/10 01:32:32;;;;;;;44.92;37.35;;;;;;;-148.88;100.00;-17125.47;4953952;28;20023;-87
2023/09/10 01:35:20;;;;;;;38.92;34.72;;;;;;;-148.88;100.00;-17125.47;4954122;29;20028;-86
2023/09/10 01:37:54;;;;;;;42.80;35.75;;;;;;;-148.88;100.00;-17125.47;4955078;28;20023;-86
2023/09/10 01:40:25;;;;;;;34.97;31.17;;;;;;;-148.88;100.00;-17125.47;4953840;29;20023;-86
2023/09/10 01:42:51;;;;;;;36.88;33.03;;;;;;;-148.88;100.00;-17125.47;4953461;28;20521;-86
2023/09/10 01:45:18;;;;;;;34.70;31.13;;;;;;;-148.88;100.00;-17125.47;4954403;29;20031;-86
2023/09/10 01:47:43;;;;;;;34.30;30.80;;;;;;;-148.88;100.00;-17125.47;4955118;28;20026;-86
2023/09/10 01:50:09;;;;;;;32.38;29.00;;;;;;;-148.88;100.00;-17125.47;4954695;28;20027;-86
2023/09/10 01:52:35;;;;;;;35.15;31.45;;;;;;;-148.88;100.00;-17125.47;4953533;28;20123;-86
2023/09/10 01:55:00;;;;;;;39.03;34.05;;;;;;;-148.88;100.00;-17125.47;4955449;29;20106;-86
2023/09/10 01:57:26;;;;;;;43.28;37.78;;;;;;;-148.88;100.00;-17125.47;4955310;28;20037;-86
2023/09/10 01:59:51;;;;;;;43.33;38.72;;;;;;;-148.88;100.00;-17125.47;4954298;29;20478;-87
2023/09/10 02:02:17;;;;;;;42.35;37.78;;;;;;;-148.88;100.00;-17125.47;4976222;23;20133;-74
2023/09/10 02:04:42;;;;;;;43.28;38.53;;;;;;;-148.88;100.00;-17125.47;4976215;28;20038;-74
2023/09/10 02:07:08;;;;;;;44.60;39.78;;;;;;;-148.88;100.00;-17125.47;4976208;28;20027;-74
2023/09/10 02:09:33;;;;;;;40.17;35.22;;;;;;;-148.88;100.00;-17125.47;4976199;28;20023;-74
2023/09/10 02:11:59;;;;;;;38.15;34.08;;;;;;;-148.88;100.00;-17125.47;4976281;28;20030;-74
2023/09/10 02:14:24;;;;;;;38.58;33.95;;;;;;;-148.88;100.00;-17125.47;4976246;28;20556;-74
2023/09/10 02:16:49;;;;;;;38.22;33.63;;;;;;;-148.88;100.00;-17125.47;4975955;28;20227;-74
2023/09/10 02:19:15;;;;;;;42.38;37.78;;;;;;;-148.88;100.00;-17125.47;4975961;28;20037;-74
2023/09/10 02:21:40;;;;;;;46.58;41.53;;;;;;;-148.88;100.00;-17125.47;4974686;28;20030;-74
2023/09/10 02:24:06;;;;;;;50.75;44.60;;;;;;;-148.88;100.00;-17125.47;4974729;28;20029;-74
2023/09/10 02:26:31;;;;;;;49.38;44.00;;;;;;;-148.88;100.00;-17125.47;4975992;28;20019;-74
2023/09/10 02:28:56;;;;;;;50.80;45.17;;;;;;;-148.88;100.00;-17125.47;4976685;28;20393;-74
2023/09/10 02:31:22;;;;;;;48.33;43.05;;;;;;;-148.88;100.00;-17125.47;4976015;28;20037;-74
2023/09/10 02:33:48;;;;;;;48.50;43.20;;;;;;;-148.88;100.00;-17125.47;4976194;28;20463;-74
2023/09/10 02:36:13;;;;;;;42.30;37.70;;;;;;;-148.88;100.00;-17125.47;4975669;28;20063;-73
2023/09/10 02:38:38;;;;;;;43.58;38.97;;;;;;;-148.88;100.00;-17125.47;4975836;28;20082;-74
2023/09/10 02:41:04;;;;;;;48.80;42.47;;;;;;;-148.88;100.00;-17125.47;4974729;28;20074;-74
2023/09/10 02:43:29;;;;;;;46.95;40.72;;;;;;;-148.88;100.00;-17125.47;4974181;28;20393;-74
2023/09/10 02:45:55;;;;;;;52.20;46.17;;;;;;;-148.88;100.00;-17125.47;4975430;28;20035;-74
2023/09/10 02:48:20;;;;;;;50.70;44.67;;;;;;;-148.88;100.00;-17125.47;4973998;28;20019;-74
2023/09/10 02:50:45;;;;;;;46.08;41.15;;;;;;;-148.88;100.00;-17125.47;4975478;28;20049;-74
2023/09/10 02:53:11;;;;;;;46.42;39.55;;;;;;;-148.88;100.00;-17125.47;4973991;28;20034;-74
2023/09/10 02:55:36;;;;;;;41.67;37.17;;;;;;;-148.88;100.00;-17125.47;4975267;28;20027;-73
2023/09/10 02:58:01;;;;;;;47.85;42.25;;;;;;;-148.88;100.00;-17125.47;4973796;28;20038;-74
2023/09/10 03:00:27;;;;;;;54.28;46.08;;;;;;;-148.88;100.00;-17125.47;4975208;28;20163;-74
2023/09/10 03:02:54;;;;;;;52.33;46.58;;;;;;;-148.88;100.00;-17125.47;4975115;28;20490;-74
2023/09/10 03:05:19;;;;;;;50.95;44.85;;;;;;;-148.88;100.00;-17125.47;4973888;28;20031;-74
2023/09/10 03:07:45;;;;;;;49.65;42.55;;;;;;;-148.88;100.00;-17125.47;4974250;28;20114;-74
2023/09/10 03:10:10;;;;;;;48.00;41.58;;;;;;;-148.88;100.00;-17125.47;4975432;28;20049;-74
2023/09/10 03:12:36;;;;;;;45.65;40.45;;;;;;;-148.88;100.00;-17125.47;4975131;28;20432;-74
2023/09/10 03:15:02;;;;;;;45.70;39.63;;;;;;;-148.88;100.00;-17125.47;4974067;28;20035;-74
2023/09/10 03:17:27;;;;;;;36.92;32.72;;;;;;;-148.88;100.00;-17125.47;4974784;28;20386;-74
2023/09/10 03:19:53;;;;;;;37.70;33.78;;;;;;;-148.88;100.00;-17125.47;4975017;28;20113;-74
2023/09/10 03:22:18;;;;;;;36.10;32.33;;;;;;;-148.88;100.00;-17125.47;4974949;28;20113;-74
2023/09/10 03:24:44;;;;;;;35.78;32.05;;;;;;;-148.88;100.00;-17125.47;4974822;28;20018;-74
2023/09/10 03:27:09;;;;;;;40.08;34.85;;;;;;;-148.88;100.00;-17125.47;4974700;28;20042;-74
2023/09/10 03:29:35;;;;;;;39.67;35.67;;;;;;;-148.88;100.00;-17125.47;4974984;28;20097;-72
2023/09/10 03:32:02;;;;;;;41.13;36.70;;;;;;;-148.88;100.00;-17125.47;4973400;28;20101;-71
2023/09/10 03:34:28;;;;;;;39.28;35.22;;;;;;;-148.88;100.00;-17125.47;4973419;28;20473;-72
2023/09/10 03:36:53;;;;;;;40.38;36.08;;;;;;;-148.88;100.00;-17125.47;4973403;28;20146;-71
2023/09/10 03:39:19;;;;;;;41.47;37.00;;;;;;;-148.88;100.00;-17125.47;4973061;28;20121;-71
2023/09/10 03:41:45;;;;;;;45.67;40.55;;;;;;;-148.88;100.00;-17125.47;4974515;28;20469;-74
2023/09/10 03:44:10;;;;;;;48.67;42.40;;;;;;;-148.88;100.00;-17125.47;4974747;28;20420;-73
2023/09/10 03:46:35;;;;;;;54.58;47.80;;;;;;;-148.88;100.00;-17125.47;4974878;28;20105;-74
2023/09/10 03:49:04;;;;;;;59.45;52.20;;;;;;;-148.88;100.00;-17125.47;4976169;23;20047;-87
2023/09/10 03:51:30;;;;;;;66.32;56.30;;;;;;;-148.88;100.00;-17125.47;4956282;29;20054;-86
2023/09/10 03:53:55;;;;;;;59.92;53.08;;;;;;;-148.88;100.00;-17125.47;4955065;29;20018;-86
2023/09/10 03:56:23;;;;;;;58.80;52.40;;;;;;;-148.88;100.00;-17125.47;4954949;29;20454;-86
2023/09/10 03:58:51;;;;;;;57.03;50.75;;;;;;;-148.88;100.00;-17125.47;4954678;28;20037;-86
2023/09/10 04:01:17;;;;;;;65.53;58.13;;;;;;;-148.88;100.00;-17125.47;4971063;23;20520;-85
2023/09/10 04:03:42;;;;;;;65.60;58.10;;;;;;;-148.88;100.00;-17125.47;4956536;29;20102;-87
2023/09/10 04:06:08;;;;;;;73.72;63.65;;;;;;;-148.88;100.00;-17125.47;4955209;29;20393;-89
2023/09/10 04:08:34;;;;;;;78.65;64.40;;;;;;;-148.88;100.00;-17125.47;4970587;28;20070;-88
2023/09/10 04:10:59;;;;;;;74.20;61.42;;;;;;;-148.88;100.00;-17125.47;4956073;28;20035;-87
2023/09/10 04:13:25;;;;;;;66.40;56.28;;;;;;;-148.88;100.00;-17125.47;4954810;29;20430;-86
2023/09/10 04:15:51;;;;;;;55.60;49.65;;;;;;;-148.88;100.00;-17125.47;4955375;29;20027;-87
2023/09/10 04:18:19;;;;;;;54.08;48.17;;;;;;;-148.88;100.00;-17125.47;4955195;29;20081;-86
2023/09/10 04:20:45;;;;;;;47.08;41.97;;;;;;;-148.88;100.00;-17125.47;4954695;28;20387;-88
2023/09/10 04:23:10;;;;;;;44.80;40.10;;;;;;;-148.88;100.00;-17125.47;4956481;28;20096;-86
2023/09/10 04:25:36;;;;;;;45.03;40.20;;;;;;;-148.88;100.00;-17125.47;4954483;28;20034;-88
2023/09/10 04:28:02;;;;;;;43.88;39.33;;;;;;;-148.88;100.00;-17125.47;4954888;29;20170;-87
2023/09/10 04:30:30;;;;;;;43.47;38.95;;;;;;;-148.88;100.00;-17125.47;4954765;28;20062;-87
2023/09/10 04:32:56;;;;;;;44.00;37.13;;;;;;;-148.88;100.00;-17125.47;4956786;28;20027;-85
2023/09/10 04:35:22;;;;;;;39.85;35.80;;;;;;;-148.88;100.00;-17125.47;4954668;29;20101;-85
2023/09/10 04:37:48;;;;;;;45.80;39.58;;;;;;;-148.88;100.00;-17125.47;4955090;29;20023;-87
2023/09/10 04:40:14;;;;;;;49.90;43.83;;;;;;;-148.88;100.00;-17125.47;4954604;28;20034;-89
2023/09/10 04:42:39;;;;;;;49.38;44.20;;;;;;;-148.88;100.00;-17125.47;4954265;29;20019;-88
2023/09/10 04:45:05;;;;;;;57.30;51.20;;;;;;;-148.88;100.00;-17125.47;4954332;29;20026;-89
2023/09/10 04:47:31;;;;;;;56.92;50.40;;;;;;;-148.88;100.00;-17125.47;4954259;29;20046;-89
2023/09/10 04:49:58;;;;;;;58.65;50.85;;;;;;;-148.88;100.00;-17125.47;4955198;28;20097;-88
2023/09/10 04:52:24;;;;;;;56.97;50.80;;;;;;;-148.88;100.00;-17125.47;4954946;29;20027;-88
2023/09/10 04:54:57;;;;;;;59.85;53.38;;;;;;;-148.88;100.00;-17125.47;4954103;29;20102;-90
2023/09/10 04:57:28;;;;;;;63.78;55.03;;;;;;;-148.88;100.00;-17125.47;4955357;28;20054;-88
2023/09/10 04:59:54;;;;;;;68.72;59.15;;;;;;;-148.88;100.00;-17125.47;4955034;28;20139;-89
2023/09/10 05:02:20;;;;;;;61.28;54.67;;;;;;;-148.88;100.00;-17125.47;4959053;29;20055;-87
2023/09/10 05:04:45;;;;;;;63.10;56.13;;;;;;;-148.88;100.00;-17125.47;4955590;29;20034;-87
2023/09/10 05:07:11;;;;;;;59.15;52.70;;;;;;;-148.88;100.00;-17125.47;4955151;29;20059;-87
2023/09/10 05:09:37;;;;;;;64.72;54.75;;;;;;;-148.88;100.00;-17125.47;4955354;28;20370;-88
2023/09/10 05:12:05;;;;;;;59.42;52.85;;;;;;;-148.88;100.00;-17125.47;4957558;29;20082;-88
2023/09/10 05:14:31;;;;;;;56.95;50.75;;;;;;;-148.88;100.00;-17125.47;4956263;29;20478;-87
2023/09/10 05:16:56;;;;;;;55.33;48.90;;;;;;;-148.88;100.00;-17125.47;4956526;29;20034;-87
2023/09/10 05:19:23;;;;;;;57.95;48.28;;;;;;;-148.88;100.00;-17125.47;4954730;28;20379;-86
2023/09/10 05:21:49;;;;;;;63.83;53.45;;;;;;;-148.88;100.00;-17125.47;4954203;29;20466;-87
2023/09/10 05:24:14;;;;;;;65.35;57.17;;;;;;;-148.88;100.00;-17125.47;4955662;28;20493;-87
2023/09/10 05:26:40;;;;;;;61.78;53.47;;;;;;;-148.88;100.00;-17125.47;4954467;29;20056;-87
2023/09/10 05:29:05;;;;;;;61.50;54.55;;;;;;;-148.88;100.00;-17125.47;4955429;29;20398;-88
2023/09/10 05:31:34;;;;;;;63.33;56.10;;;;;;;-148.88;100.00;-17125.47;4956444;28;20077;-88
2023/09/10 05:33:59;;;;;;;67.63;59.13;;;;;;;-148.88;100.00;-17125.47;4955000;29;20023;-88
2023/09/10 05:36:27;;;;;;;67.95;60.60;;;;;;;-148.88;100.00;-17125.47;4954075;29;20050;-88
2023/09/10 05:38:52;;;;;;;64.57;57.10;;;;;;;-148.88;100.00;-17125.47;4956031;28;20029;-87
2023/09/10 05:41:17;;;;;;;70.65;61.47;;;;;;;-148.88;100.00;-17125.47;4957713;28;20101;-87
2023/09/10 05:43:43;;;;;;;65.22;57.10;;;;;;;-148.88;100.00;-17125.47;4957388;29;20023;-87
2023/09/10 05:46:08;;;;;;;66.35;57.58;;;;;;;-148.88;100.00;-17125.47;4958466;29;20031;-87
2023/09/10 05:48:34;;;;;;;65.68;58.28;;;;;;;-148.88;100.00;-17125.47;4958742;28;20019;-87
2023/09/10 05:50:59;;;;;;;67.20;59.35;;;;;;;-148.88;100.00;-17125.47;4957610;28;20118;-87
2023/09/10 05:53:24;;;;;;;67.07;59.55;;;;;;;-148.88;100.00;-17125.47;4957601;29;20030;-87
2023/09/10 05:55:50;;;;;;;65.68;58.53;;;;;;;-148.88;100.00;-17125.47;4957486;29;20023;-87
2023/09/10 05:58:16;;;;;;;66.03;57.95;;;;;;;-148.88;100.00;-17125.47;4957224;29;20027;-88
2023/09/10 06:00:41;;;;;;;67.35;57.17;;;;;;;-148.88;100.00;-17125.47;4957400;28;20031;-87
2023/09/10 06:03:09;;;;;;;65.72;58.08;;;;;;;-148.88;100.00;-17125.47;4957775;29;20106;-88
2023/09/10 06:05:35;;;;;;;63.72;56.20;;;;;;;-148.88;100.00;-17125.47;4957410;29;20031;-87
2023/09/10 06:08:00;;;;;;;65.47;56.72;;;;;;;-148.88;100.00;-17125.47;4959054;28;20097;-89
2023/09/10 06:10:25;;;;;;;62.13;54.70;;;;;;;-148.88;100.00;-17125.47;4957069;28;20071;-86
2023/09/10 06:12:51;;;;;;;61.80;55.17;;;;;;;-148.88;100.00;-17125.47;4956902;29;20054;-86
2023/09/10 06:15:16;;;;;;;65.40;55.88;;;;;;;-148.88;100.00;-17125.47;4957082;29;20023;-87
2023/09/10 06:17:42;;;;;;;65.45;57.63;;;;;;;-148.88;100.00;-17125.47;4957017;29;20114;-87
2023/09/10 06:20:08;;;;;;;62.72;55.83;;;;;;;-148.88;100.00;-17125.47;4956764;28;20030;-87
2023/09/10 06:22:34;;;;;;;64.07;55.50;;;;;;;-148.88;100.00;-17125.47;4957272;29;20035;-87
2023/09/10 06:24:59;;;;;;;62.30;55.55;;;;;;;-148.88;100.00;-17125.47;4957252;29;20019;-86
2023/09/10 06:27:25;;;;;;;66.68;58.05;;;;;;;-148.88;100.00;-17125.47;4957082;29;20379;-85
2023/09/10 06:29:51;;;;;;;67.85;60.45;;;;;;;-148.88;100.00;-17125.47;4957444;28;20035;-84
2023/09/10 06:32:19;;;;;;;70.10;61.38;;;;;;;-148.88;100.00;-17125.47;4958473;28;20038;-84
2023/09/10 06:34:44;;;;;;;72.35;61.20;;;;;;;-148.88;100.00;-17125.47;4958313;29;20031;-85
2023/09/10 06:37:10;;;;;;;56.22;50.13;;;;;;;-148.88;100.00;-17125.47;4957117;29;20050;-85
2023/09/10 06:39:38;;;;;;;52.10;46.60;;;;;;;-148.88;100.00;-17125.47;4957202;28;20023;-86
2023/09/10 06:42:10;;;;;;;51.17;45.65;;;;;;;-148.88;100.00;-17125.47;4956746;29;20493;-86
2023/09/10 06:44:38;;;;;;;65.55;58.35;;;;;;;-148.88;100.00;-17125.47;4957633;28;20023;-86
2023/09/10 06:47:04;;;;;;;62.38;55.58;;;;;;;-148.88;100.00;-17125.47;4958623;28;20084;-86
2023/09/10 06:49:29;;;;;;;60.25;53.65;;;;;;;-148.88;100.00;-17125.47;4956728;28;20114;-85
2023/09/10 06:51:56;;;;;;;57.78;51.67;;;;;;;-148.88;100.00;-17125.47;4956699;29;20057;-87
2023/09/10 06:54:21;;;;;;;58.15;51.85;;;;;;;-148.88;100.00;-17125.47;4956734;29;20070;-86
2023/09/10 06:56:49;;;;;;;57.72;50.97;;;;;;;-148.88;100.00;-17125.47;4958812;28;20031;-88
2023/09/10 06:59:15;;;;;;;59.35;52.08;;;;;;;-148.88;100.00;-17125.47;4959007;28;20035;-88
2023/09/10 07:01:40;;;;;;;57.20;50.95;;;;;;;-148.88;100.00;-17125.47;4958704;28;20039;-87
2023/09/10 07:04:26;;;;;;;55.03;49.00;;;;;;;-148.88;100.00;-17125.47;4959182;29;20031;-86
2023/09/10 07:06:53;;;;;;;62.83;53.45;;;;;;;-148.88;100.00;-17125.47;4958576;29;20161;-87
2023/09/10 07:09:21;;;;;;;50.25;44.97;;;;;;;-148.88;100.00;-17125.47;4957790;29;20062;-86
2023/09/10 07:11:46;;;;;;;46.72;41.72;;;;;;;-148.88;100.00;-17125.47;4961215;28;20031;-84
2023/09/10 07:14:12;;;;;;;48.08;42.90;;;;;;;-148.88;100.00;-17125.47;4957425;29;20030;-86
2023/09/10 07:16:43;;;;;;;47.10;42.00;;;;;;;-148.88;100.00;-17125.47;4957659;29;20139;-85
2023/09/10 07:19:08;;;;;;;45.20;40.30;;;;;;;-148.88;100.00;-17125.47;4962478;29;20075;-86
2023/09/10 07:21:34;;;;;;;47.20;42.10;;;;;;;-148.88;100.00;-17125.47;4961605;28;20027;-85
2023/09/10 07:23:59;;;;;;;49.33;44.13;;;;;;;-148.88;100.00;-17125.47;4960746;28;20402;-86
2023/09/10 07:26:24;;;;;;;45.92;41.13;;;;;;;-148.88;100.00;-17125.47;4958572;29;20047;-86
2023/09/10 07:28:50;;;;;;;47.17;42.13;;;;;;;-148.88;100.00;-17125.47;4956633;29;20486;-85
2023/09/10 07:31:16;;;;;;;47.95;42.70;;;;;;;-148.88;100.00;-17125.47;4958108;28;20067;-83
2023/09/10 07:33:41;;;;;;;45.88;40.97;;;;;;;-148.88;100.00;-17125.47;4958945;29;20213;-85
2023/09/10 07:36:06;;;;;;;47.10;42.00;;;;;;;-148.88;100.00;-17125.47;4958466;29;20031;-84
2023/09/10 07:38:32;;;;;;;45.70;40.80;;;;;;;-148.88;100.00;-17125.47;4959400;28;20343;-85
2023/09/10 07:41:01;;;;;;;45.53;40.65;;;;;;;-148.88;100.00;-17125.47;4960100;28;20442;-85
2023/09/10 07:43:27;;;;;;;49.35;44.05;;;;;;;-148.88;100.00;-17125.47;4962614;29;20081;-85
2023/09/10 07:45:52;;;;;;;49.13;43.88;;;;;;;-148.88;100.00;-17125.47;4960927;28;20102;-83
2023/09/10 07:48:18;;;;;;;48.92;43.65;;;;;;;-148.88;100.00;-17125.47;4960422;29;20083;-84
2023/09/10 07:50:56;;;;;;;54.13;47.75;;;;;;;-148.88;100.00;-17125.47;4961394;28;20054;-84
2023/09/10 07:53:23;;;;;;;54.75;47.78;;;;;;;-148.88;100.00;-17125.47;4961783;28;20038;-85
2023/09/10 07:55:49;;;;;;;52.65;46.88;;;;;;;-148.88;100.00;-17125.47;4961942;28;20050;-85
2023/09/10 07:58:14;;;;;;;55.53;48.53;;;;;;;-148.88;100.00;-17125.47;4961864;28;20082;-85
2023/09/10 08:00:40;;;;;;;57.60;50.83;;;;;;;-148.88;100.00;-17125.47;4962273;28;20031;-83
2023/09/10 08:03:06;;;;;;;55.33;49.30;;;;;;;-148.88;100.00;-17125.47;4961234;28;20027;-85
2023/09/10 08:05:33;;;;;;;52.80;45.80;;;;;;;-148.88;100.00;-17125.47;4958591;29;20031;-84
2023/09/10 08:08:05;;;;;;;55.80;49.20;;;;;;;-148.88;100.00;-17125.47;4957488;28;20058;-85
2023/09/10 08:10:31;;;;;;;56.97;48.85;;;;;;;-148.88;100.00;-17125.47;4957145;28;20114;-83
2023/09/10 08:12:57;;;;;;;55.65;49.55;;;;;;;-148.88;100.00;-17125.47;4957719;29;20019;-84
2023/09/10 08:15:22;;;;;;;52.55;46.75;;;;;;;-148.88;100.00;-17125.47;4957122;29;20023;-86
2023/09/10 08:17:50;;;;;;;56.60;50.50;;;;;;;-148.88;100.00;-17125.47;4956577;29;20553;-84
2023/09/10 08:20:16;;;;;;;55.13;49.25;;;;;;;-148.88;100.00;-17125.47;4961416;28;20027;-84
2023/09/10 08:22:46;;;;;;;57.83;48.83;;;;;;;-148.88;100.00;-17125.47;4958941;29;20171;-83
2023/09/10 08:25:11;;;;;;;53.92;48.03;;;;;;;-148.88;100.00;-17125.47;4961078;29;20030;-84
2023/09/10 08:27:37;;;;;;;50.33;44.90;;;;;;;-148.88;100.00;-17125.47;4958807;29;20024;-84
2023/09/10 08:30:06;;;;;;;52.58;45.78;;;;;;;-148.88;100.00;-17125.47;4958963;28;20031;-84
2023/09/10 08:32:33;;;;;;;50.50;44.90;;;;;;;-148.88;100.00;-17125.47;4958617;29;20024;-85
2023/09/10 08:35:02;;;;;;;48.28;43.05;;;;;;;-148.88;100.00;-17125.47;4957021;29;20118;-85
2023/09/10 08:37:27;;;;;;;48.45;43.15;;;;;;;-148.88;100.00;-17125.47;4959482;29;20106;-85
2023/09/10 08:39:53;;;;;;;50.65;44.28;;;;;;;-148.88;100.00;-17125.47;4959710;28;20047;-85
2023/09/10 08:42:28;;;;;;;45.92;40.92;;;;;;;-148.88;100.00;-17125.47;4959887;29;20438;-85
2023/09/10 08:45:00;;;;;;;43.55;39.15;;;;;;;-148.88;100.00;-17125.47;4965132;28;20023;-84
2023/09/10 08:47:29;;;;;;;45.38;40.45;;;;;;;-148.88;100.00;-17125.47;4956113;29;20471;-82
2023/09/10 08:50:02;;;;;;;41.72;37.22;;;;;;;-148.88;100.00;-17125.47;4956504;28;20194;-84
2023/09/10 08:52:30;;;;;;;41.45;37.10;;;;;;;-148.88;100.00;-17125.47;4955978;29;20110;-85
2023/09/10 08:54:55;;;;;;;38.15;34.03;;;;;;;-148.88;100.00;-17125.47;4955789;29;20200;-85
2023/09/10 08:57:21;;;;;;;36.63;32.63;;;;;;;-148.88;100.00;-17125.47;4956115;29;20091;-85
2023/09/10 08:59:47;;;;;;;37.65;33.60;;;;;;;-148.88;100.00;-17125.47;4957856;28;20055;-85
2023/09/10 09:02:13;;;;;;;35.50;29.40;;;;;;;-148.88;100.00;-17125.47;4957121;29;20038;-85
2023/09/10 09:04:38;;;;;;;27.75;24.67;;;;;;;-148.88;100.00;-17125.47;4959141;28;20027;-85
2023/09/10 09:07:11;;;;;;;27.35;24.48;;;;;;;-148.88;100.00;-17125.47;4959338;28;20115;-86
2023/09/10 09:09:41;;;;;;;24.05;21.45;;;;;;;-148.88;100.00;-17125.47;4959543;28;20033;-84
2023/09/10 09:12:13;;;;;;;27.88;24.88;;;;;;;-148.88;100.00;-17125.47;4957630;28;20035;-85
2023/09/10 09:14:42;;;;;;;31.67;25.42;;;;;;;-148.88;100.00;-17125.47;4963398;29;20032;-84
2023/09/10 09:17:11;;;;;;;27.70;23.42;;;;;;;-148.88;100.00;-17125.47;4962710;28;20029;-83
2023/09/10 09:19:39;;;;;;;22.48;20.08;;;;;;;-148.88;100.00;-17125.47;4962246;28;20395;-83
2023/09/10 09:22:07;;;;;;;22.65;19.85;;;;;;;-148.88;99.94;-17125.47;4962771;29;20159;-84
2023/09/10 09:24:33;;;;;;;24.08;19.40;;;;;;;-148.88;99.98;-17125.47;4963560;29;20043;-85
2023/09/10 09:27:01;;;;;;;24.95;20.90;;;;;;;-148.88;96.42;-17125.47;4960780;29;20473;-84
2023/09/10 09:29:28;;;;;;;20.00;17.83;;;;;;;-148.88;97.43;-17125.47;4963517;28;20090;-84
2023/09/10 09:31:54;;;;;;;24.40;20.10;;;;;;;-148.88;97.34;-17125.47;4963394;29;20086;-83
2023/09/10 09:34:19;;;;;;;22.05;19.65;;;;;;;-148.88;97.00;-17125.47;4963587;29;20031;-85
2023/09/10 09:36:50;;;;;;;28.70;22.00;;;;;;;-148.88;95.77;-17125.47;4963015;29;20117;-85
2023/09/10 09:39:17;;;;;;;24.67;22.05;;;;;;;-148.88;94.35;-17125.47;4964424;28;20389;-86
2023/09/10 09:41:49;;;;;;;23.75;20.63;;;;;;;-148.88;93.18;-17125.47;4965691;28;20082;-84
2023/09/10 09:44:15;;;;;;;22.13;19.80;;;;;;;-148.88;93.87;-17125.47;4962961;29;20027;-85
2023/09/10 09:46:41;;;;;;;24.13;20.80;;;;;;;-148.88;92.03;-17125.47;4963964;28;20074;-84
2023/09/10 09:49:06;;;;;;;21.10;17.88;;;;;;;-148.88;95.74;-17125.47;4963368;29;20502;-86
2023/09/10 09:51:32;;;;;;;23.58;20.65;;;;;;;-148.88;92.31;-17125.47;4962625;28;20151;-85
2023/09/10 09:53:57;;;;;;;23.10;19.70;;;;;;;-148.88;92.54;-17125.47;4967654;28;20027;-84
2023/09/10 09:56:23;;;;;;;20.00;17.90;;;;;;;-148.88;90.78;-17125.47;4966205;29;20050;-81
2023/09/10 09:58:48;;;;;;;18.25;16.20;;;;;;;-148.88;88.97;-17125.47;4967615;29;20031;-82
2023/09/10 10:01:13;;;;;;;21.95;18.00;;;;;;;-148.88;88.09;-17125.47;4964217;28;20537;-82
2023/09/10 10:03:40;;;;;;;19.50;17.50;;;;;;;-148.88;88.67;-17125.47;4967576;28;20126;-83
2023/09/10 10:06:06;;;;;;;21.98;18.73;;;;;;;-148.88;87.69;-17125.47;4964769;29;20094;-83
2023/09/10 10:08:32;;;;;;;20.33;17.60;;;;;;;-148.88;86.19;-17125.47;4961336;29;20118;-81
2023/09/10 10:10:58;;;;;;;20.80;18.20;;;;;;;-148.88;86.71;-17125.47;4960160;28;20027;-82
2023/09/10 10:13:25;;;;;;;20.35;16.77;;;;;;;-148.88;85.99;-17125.47;4963340;29;20027;-82
2023/09/10 10:15:53;;;;;;;17.85;13.93;;;;;;;-148.88;84.62;-17125.47;4965722;28;20038;-81
2023/09/10 10:18:20;;;;;;;20.63;16.98;;;;;;;-148.88;83.67;-17125.47;4964041;28;20033;-83
2023/09/10 10:20:49;;;;;;;16.00;14.27;;;;;;;-148.88;85.71;-17125.47;4962410;28;20502;-85
2023/09/10 10:23:15;;;;;;;18.63;16.20;;;;;;;-148.88;85.20;-17125.47;4961958;28;20486;-83
2023/09/10 10:25:45;;;;;;;33.53;23.67;;;;;;;-148.88;84.20;-17125.47;4964958;29;20027;-83
2023/09/10 10:28:12;;;;;;;18.80;15.65;;;;;;;-148.88;81.01;-17125.47;4965654;29;20394;-84
2023/09/10 10:30:46;;;;;;;18.10;15.32;;;;;;;-148.88;77.41;-17125.47;4962689;28;20023;-83
2023/09/10 10:33:14;;;;;;;13.93;12.27;;;;;;;-148.88;80.01;-17125.47;4965303;29;20146;-83
2023/09/10 10:35:44;;;;;;;16.38;14.55;;;;;;;-148.88;76.24;-17125.47;4969288;28;20023;-83
2023/09/10 10:38:16;;;;;;;18.17;14.43;;;;;;;-148.88;77.11;-17125.47;4965350;28;20059;-83
2023/09/10 10:40:44;;;;;;;19.10;15.70;;;;;;;-148.88;77.21;-17125.47;4964664;28;20023;-81
2023/09/10 10:43:20;;;;;;;15.48;13.75;;;;;;;-148.88;75.95;-17125.47;4963416;29;20023;-84
2023/09/10 10:45:48;;;;;;;16.63;12.85;;;;;;;-148.88;76.10;-17125.47;4964538;29;20024;-82